首页
METAR-TAF:

METAR-TAF

机场 :

克莱蒙费朗, 法国

纬度: 45-47N, 经度: 003-10E, 海拔: 332米

当前天气观测

该预报发布于26分钟前的20:30 UTC
风速1节,风向东北
温度 3°C
湿度 93%
气压 1020 hPa
能见度10公里或以上
1500米以下无云,无积雨云

METAR: LFLC 292030Z AUTO 04001KT CAVOK 03/02 Q1020 NOSIG

时间: 21:56 (20:56 UTC)

预报

该预报发布于56分钟前的20:00 UTC
预报有效从29日的 21点(UTC)到 30日的 21点(UTC)
风速2节,风向多变
能见度10公里或以上
1500米以下无云,无积雨云
成为
从 29日的 23点(UTC)到 30日的 03点(UTC)
风速10节,风向
几率 30% :
短暂存在
从 30日的 04点(UTC)到 30日的 09点(UTC)
风速15节,风向,有时为25节阵风
几率 30% :
短暂存在
从 30日的 09点(UTC)到 30日的 12点(UTC)
风速15节,风向,有时为25节阵风
多云层高于5000英尺
成为
从 30日的 15点(UTC)到 30日的 18点(UTC)
多云层高于4500英尺

TAF: LFLC 292000Z 2921/3021 VRB02KT CAVOK BECMG 2923/3003 18010KT PROB30 TEMPO 3004/3009 18015G25KT PROB30 TEMPO 3009/3012 18015G25KT RA BKN050 BECMG 3015/3018 BKN045

超过4000个机场的气象观测和天气预报(METAR&TAF报告)。

可查询的气象台以黄色和红色小点在地图上表示。

将鼠标移到小点上方,可查看气象台名称。

然后点击查看天气观测和预报。

如需切换地图:点击带黑十字的绿色按钮放大地图;点击带横线的绿色按钮缩小地图;或者点击绿色箭头查看邻近地区的地图。


METAR-TAF: